sensor_id;sensor_type;location;lat;lon;timestamp;P1;durP1;ratioP1;P2;durP2;ratioP2
85807;SDS011;76250;48.718;9.000;2024-02-23T00:00:24;0.50;;;0.50;;
85807;SDS011;76250;48.718;9.000;2024-02-23T00:02:52;0.60;;;0.60;;
85807;SDS011;76250;48.718;9.000;2024-02-23T00:05:21;0.50;;;0.50;;
85807;SDS011;76250;48.718;9.000;2024-02-23T00:07:49;0.67;;;0.67;;
85807;SDS011;76250;48.718;9.000;2024-02-23T00:10:17;0.63;;;0.63;;
85807;SDS011;76250;48.718;9.000;2024-02-23T00:12:45;0.70;;;0.70;;
85807;SDS011;76250;48.718;9.000;2024-02-23T00:15:14;0.70;;;0.70;;
85807;SDS011;76250;48.718;9.000;2024-02-23T00:17:42;0.93;;;0.80;;
85807;SDS011;76250;48.718;9.000;2024-02-23T00:20:10;0.60;;;0.60;;
85807;SDS011;76250;48.718;9.000;2024-02-23T00:22:39;0.70;;;0.70;;
85807;SDS011;76250;48.718;9.000;2024-02-23T00:25:07;1.33;;;0.80;;
85807;SDS011;76250;48.718;9.000;2024-02-23T00:27:35;0.80;;;0.80;;
85807;SDS011;76250;48.718;9.000;2024-02-23T00:30:03;0.70;;;0.70;;
85807;SDS011;76250;48.718;9.000;2024-02-23T00:32:32;0.70;;;0.70;;
85807;SDS011;76250;48.718;9.000;2024-02-23T00:35:00;0.73;;;0.73;;
85807;SDS011;76250;48.718;9.000;2024-02-23T00:37:28;0.70;;;0.70;;
85807;SDS011;76250;48.718;9.000;2024-02-23T00:39:56;0.87;;;0.87;;
85807;SDS011;76250;48.718;9.000;2024-02-23T00:42:24;0.90;;;0.90;;
85807;SDS011;76250;48.718;9.000;2024-02-23T00:44:52;0.80;;;0.80;;
85807;SDS011;76250;48.718;9.000;2024-02-23T00:47:20;0.90;;;0.90;;
85807;SDS011;76250;48.718;9.000;2024-02-23T00:49:48;0.90;;;0.90;;
85807;SDS011;76250;48.718;9.000;2024-02-23T00:52:16;0.77;;;0.77;;
85807;SDS011;76250;48.718;9.000;2024-02-23T00:54:44;0.90;;;0.90;;
85807;SDS011;76250;48.718;9.000;2024-02-23T00:57:12;0.90;;;0.90;;
85807;SDS011;76250;48.718;9.000;2024-02-23T00:59:41;0.90;;;0.90;;
85807;SDS011;76250;48.718;9.000;2024-02-23T01:02:09;0.80;;;0.80;;
85807;SDS011;76250;48.718;9.000;2024-02-23T01:04:37;0.90;;;0.90;;
85807;SDS011;76250;48.718;9.000;2024-02-23T01:07:05;0.80;;;0.80;;
85807;SDS011;76250;48.718;9.000;2024-02-23T01:09:33;1.53;;;0.70;;
85807;SDS011;76250;48.718;9.000;2024-02-23T01:12:01;1.37;;;1.00;;
85807;SDS011;76250;48.718;9.000;2024-02-23T01:14:29;1.10;;;1.00;;
85807;SDS011;76250;48.718;9.000;2024-02-23T01:16:57;1.00;;;1.00;;
85807;SDS011;76250;48.718;9.000;2024-02-23T01:19:25;0.90;;;0.90;;
85807;SDS011;76250;48.718;9.000;2024-02-23T01:21:53;0.70;;;0.70;;
85807;SDS011;76250;48.718;9.000;2024-02-23T01:24:27;1.37;;;0.93;;
85807;SDS011;76250;48.718;9.000;2024-02-23T01:26:56;0.80;;;0.80;;
85807;SDS011;76250;48.718;9.000;2024-02-23T01:29:25;0.97;;;0.90;;
85807;SDS011;76250;48.718;9.000;2024-02-23T01:31:54;0.80;;;0.80;;
85807;SDS011;76250;48.718;9.000;2024-02-23T01:34:22;1.70;;;1.47;;
85807;SDS011;76250;48.718;9.000;2024-02-23T01:36:50;1.33;;;1.10;;
85807;SDS011;76250;48.718;9.000;2024-02-23T01:39:18;1.10;;;1.10;;
85807;SDS011;76250;48.718;9.000;2024-02-23T01:41:46;0.90;;;0.90;;
85807;SDS011;76250;48.718;9.000;2024-02-23T01:44:14;1.10;;;1.00;;
85807;SDS011;76250;48.718;9.000;2024-02-23T01:46:44;0.93;;;0.83;;
85807;SDS011;76250;48.718;9.000;2024-02-23T01:49:12;1.07;;;1.03;;
85807;SDS011;76250;48.718;9.000;2024-02-23T01:51:41;0.70;;;0.70;;
85807;SDS011;76250;48.718;9.000;2024-02-23T01:54:09;0.87;;;0.87;;
85807;SDS011;76250;48.718;9.000;2024-02-23T01:56:38;0.90;;;0.90;;
85807;SDS011;76250;48.718;9.000;2024-02-23T01:59:07;2.47;;;1.10;;
85807;SDS011;76250;48.718;9.000;2024-02-23T02:01:38;0.90;;;0.90;;
85807;SDS011;76250;48.718;9.000;2024-02-23T02:04:07;1.17;;;1.10;;
85807;SDS011;76250;48.718;9.000;2024-02-23T02:06:35;1.10;;;0.90;;
85807;SDS011;76250;48.718;9.000;2024-02-23T02:09:03;1.83;;;1.20;;
85807;SDS011;76250;48.718;9.000;2024-02-23T02:11:31;0.80;;;0.80;;
85807;SDS011;76250;48.718;9.000;2024-02-23T02:13:59;0.80;;;0.80;;
85807;SDS011;76250;48.718;9.000;2024-02-23T02:16:27;0.80;;;0.80;;
85807;SDS011;76250;48.718;9.000;2024-02-23T02:18:55;1.70;;;1.37;;
85807;SDS011;76250;48.718;9.000;2024-02-23T02:21:23;1.03;;;0.90;;
85807;SDS011;76250;48.718;9.000;2024-02-23T02:23:52;1.83;;;1.10;;
85807;SDS011;76250;48.718;9.000;2024-02-23T02:26:20;1.00;;;1.00;;
85807;SDS011;76250;48.718;9.000;2024-02-23T02:28:48;1.60;;;1.00;;
85807;SDS011;76250;48.718;9.000;2024-02-23T02:31:16;2.23;;;1.07;;
85807;SDS011;76250;48.718;9.000;2024-02-23T02:33:44;3.03;;;1.20;;
85807;SDS011;76250;48.718;9.000;2024-02-23T02:36:12;0.80;;;0.80;;
85807;SDS011;76250;48.718;9.000;2024-02-23T02:38:40;1.87;;;1.20;;
85807;SDS011;76250;48.718;9.000;2024-02-23T02:41:08;1.20;;;1.10;;
85807;SDS011;76250;48.718;9.000;2024-02-23T02:43:36;1.03;;;1.00;;
85807;SDS011;76250;48.718;9.000;2024-02-23T02:46:04;1.03;;;0.90;;
85807;SDS011;76250;48.718;9.000;2024-02-23T02:48:32;0.80;;;0.80;;
85807;SDS011;76250;48.718;9.000;2024-02-23T02:51:00;0.97;;;0.90;;
85807;SDS011;76250;48.718;9.000;2024-02-23T02:53:28;1.10;;;1.00;;
85807;SDS011;76250;48.718;9.000;2024-02-23T02:55:56;0.83;;;0.83;;
85807;SDS011;76250;48.718;9.000;2024-02-23T02:58:24;1.00;;;1.00;;
85807;SDS011;76250;48.718;9.000;2024-02-23T03:00:52;0.83;;;0.83;;
85807;SDS011;76250;48.718;9.000;2024-02-23T03:03:20;1.20;;;1.10;;
85807;SDS011;76250;48.718;9.000;2024-02-23T03:05:50;1.00;;;1.00;;
85807;SDS011;76250;48.718;9.000;2024-02-23T03:08:18;0.97;;;0.97;;
85807;SDS011;76250;48.718;9.000;2024-02-23T03:10:46;2.20;;;1.00;;
85807;SDS011;76250;48.718;9.000;2024-02-23T03:13:15;1.77;;;1.00;;
85807;SDS011;76250;48.718;9.000;2024-02-23T03:15:43;0.73;;;0.73;;
85807;SDS011;76250;48.718;9.000;2024-02-23T03:18:11;1.30;;;1.00;;
85807;SDS011;76250;48.718;9.000;2024-02-23T03:20:42;0.80;;;0.80;;
85807;SDS011;76250;48.718;9.000;2024-02-23T03:23:10;0.60;;;0.60;;
85807;SDS011;76250;48.718;9.000;2024-02-23T03:25:38;0.97;;;0.90;;
85807;SDS011;76250;48.718;9.000;2024-02-23T03:28:06;1.17;;;0.97;;
85807;SDS011;76250;48.718;9.000;2024-02-23T03:30:34;1.20;;;1.10;;
85807;SDS011;76250;48.718;9.000;2024-02-23T03:33:03;1.10;;;0.90;;
85807;SDS011;76250;48.718;9.000;2024-02-23T03:35:31;1.33;;;1.00;;
85807;SDS011;76250;48.718;9.000;2024-02-23T03:38:00;0.90;;;0.90;;
85807;SDS011;76250;48.718;9.000;2024-02-23T03:40:28;1.07;;;0.93;;
85807;SDS011;76250;48.718;9.000;2024-02-23T03:42:56;1.63;;;0.83;;
85807;SDS011;76250;48.718;9.000;2024-02-23T03:45:24;1.10;;;0.93;;
85807;SDS011;76250;48.718;9.000;2024-02-23T03:47:52;0.80;;;0.80;;
85807;SDS011;76250;48.718;9.000;2024-02-23T03:50:20;1.10;;;1.00;;
85807;SDS011;76250;48.718;9.000;2024-02-23T03:52:48;1.40;;;1.30;;
85807;SDS011;76250;48.718;9.000;2024-02-23T03:55:16;1.10;;;1.00;;
85807;SDS011;76250;48.718;9.000;2024-02-23T03:57:44;1.00;;;1.00;;
85807;SDS011;76250;48.718;9.000;2024-02-23T04:00:14;1.27;;;1.00;;
85807;SDS011;76250;48.718;9.000;2024-02-23T04:02:42;1.37;;;1.20;;
85807;SDS011;76250;48.718;9.000;2024-02-23T04:05:10;0.70;;;0.70;;
85807;SDS011;76250;48.718;9.000;2024-02-23T04:07:38;0.90;;;0.90;;
85807;SDS011;76250;48.718;9.000;2024-02-23T04:10:06;1.07;;;0.87;;
85807;SDS011;76250;48.718;9.000;2024-02-23T04:12:35;1.10;;;1.00;;
85807;SDS011;76250;48.718;9.000;2024-02-23T04:15:02;1.13;;;1.03;;
85807;SDS011;76250;48.718;9.000;2024-02-23T04:17:31;1.00;;;1.00;;
85807;SDS011;76250;48.718;9.000;2024-02-23T04:20:00;1.00;;;1.00;;
85807;SDS011;76250;48.718;9.000;2024-02-23T04:22:34;1.17;;;1.07;;
85807;SDS011;76250;48.718;9.000;2024-02-23T04:25:02;1.30;;;1.20;;
85807;SDS011;76250;48.718;9.000;2024-02-23T04:27:30;1.43;;;1.33;;
85807;SDS011;76250;48.718;9.000;2024-02-23T04:29:58;1.60;;;1.00;;
85807;SDS011;76250;48.718;9.000;2024-02-23T04:32:26;1.77;;;1.40;;
85807;SDS011;76250;48.718;9.000;2024-02-23T04:34:54;1.77;;;1.03;;
85807;SDS011;76250;48.718;9.000;2024-02-23T04:37:22;0.90;;;0.90;;
85807;SDS011;76250;48.718;9.000;2024-02-23T04:39:50;1.40;;;1.30;;
85807;SDS011;76250;48.718;9.000;2024-02-23T04:42:18;1.63;;;1.40;;
85807;SDS011;76250;48.718;9.000;2024-02-23T04:44:46;1.60;;;1.50;;
85807;SDS011;76250;48.718;9.000;2024-02-23T04:47:16;1.33;;;1.23;;
85807;SDS011;76250;48.718;9.000;2024-02-23T04:49:44;1.30;;;1.20;;
85807;SDS011;76250;48.718;9.000;2024-02-23T04:52:12;1.70;;;1.13;;
85807;SDS011;76250;48.718;9.000;2024-02-23T04:54:40;0.80;;;0.80;;
85807;SDS011;76250;48.718;9.000;2024-02-23T04:57:08;1.00;;;1.00;;
85807;SDS011;76250;48.718;9.000;2024-02-23T04:59:36;0.90;;;0.90;;
85807;SDS011;76250;48.718;9.000;2024-02-23T05:02:04;2.53;;;1.10;;
85807;SDS011;76250;48.718;9.000;2024-02-23T05:04:32;1.77;;;0.93;;
85807;SDS011;76250;48.718;9.000;2024-02-23T05:07:01;1.10;;;1.00;;
85807;SDS011;76250;48.718;9.000;2024-02-23T05:09:29;0.90;;;0.90;;
85807;SDS011;76250;48.718;9.000;2024-02-23T05:11:56;1.13;;;1.03;;
85807;SDS011;76250;48.718;9.000;2024-02-23T05:14:25;1.00;;;1.00;;
85807;SDS011;76250;48.718;9.000;2024-02-23T05:16:54;1.07;;;0.97;;
85807;SDS011;76250;48.718;9.000;2024-02-23T05:19:22;1.40;;;0.97;;
85807;SDS011;76250;48.718;9.000;2024-02-23T05:21:51;1.47;;;1.03;;
85807;SDS011;76250;48.718;9.000;2024-02-23T05:24:19;1.10;;;1.10;;
85807;SDS011;76250;48.718;9.000;2024-02-23T05:26:47;0.80;;;0.77;;
85807;SDS011;76250;48.718;9.000;2024-02-23T05:29:15;1.00;;;1.00;;
85807;SDS011;76250;48.718;9.000;2024-02-23T05:31:49;1.00;;;1.00;;
85807;SDS011;76250;48.718;9.000;2024-02-23T05:34:20;1.90;;;1.30;;
85807;SDS011;76250;48.718;9.000;2024-02-23T05:36:48;1.20;;;1.10;;
85807;SDS011;76250;48.718;9.000;2024-02-23T05:39:18;1.00;;;1.00;;
85807;SDS011;76250;48.718;9.000;2024-02-23T05:41:46;0.90;;;0.90;;
85807;SDS011;76250;48.718;9.000;2024-02-23T05:44:14;0.97;;;0.90;;
85807;SDS011;76250;48.718;9.000;2024-02-23T05:46:42;1.10;;;1.00;;
85807;SDS011;76250;48.718;9.000;2024-02-23T05:49:12;0.80;;;0.80;;
85807;SDS011;76250;48.718;9.000;2024-02-23T05:51:40;1.00;;;1.00;;
85807;SDS011;76250;48.718;9.000;2024-02-23T05:54:08;1.10;;;1.10;;
85807;SDS011;76250;48.718;9.000;2024-02-23T05:56:36;1.60;;;1.50;;
85807;SDS011;76250;48.718;9.000;2024-02-23T05:59:04;1.60;;;1.43;;
85807;SDS011;76250;48.718;9.000;2024-02-23T06:01:33;1.83;;;1.53;;
85807;SDS011;76250;48.718;9.000;2024-02-23T06:04:02;1.77;;;1.67;;
85807;SDS011;76250;48.718;9.000;2024-02-23T06:06:30;2.43;;;2.07;;
85807;SDS011;76250;48.718;9.000;2024-02-23T06:08:58;1.67;;;1.57;;
85807;SDS011;76250;48.718;9.000;2024-02-23T06:11:27;2.13;;;1.50;;
85807;SDS011;76250;48.718;9.000;2024-02-23T06:13:55;1.50;;;1.40;;
85807;SDS011;76250;48.718;9.000;2024-02-23T06:16:23;1.80;;;1.70;;
85807;SDS011;76250;48.718;9.000;2024-02-23T06:18:51;1.43;;;1.33;;
85807;SDS011;76250;48.718;9.000;2024-02-23T06:21:19;1.70;;;1.60;;
85807;SDS011;76250;48.718;9.000;2024-02-23T06:23:47;2.33;;;1.60;;
85807;SDS011;76250;48.718;9.000;2024-02-23T06:26:15;1.60;;;1.40;;
85807;SDS011;76250;48.718;9.000;2024-02-23T06:28:43;1.20;;;1.20;;
85807;SDS011;76250;48.718;9.000;2024-02-23T06:31:12;1.27;;;1.20;;
85807;SDS011;76250;48.718;9.000;2024-02-23T06:33:40;1.37;;;1.27;;
85807;SDS011;76250;48.718;9.000;2024-02-23T06:36:09;1.43;;;1.30;;
85807;SDS011;76250;48.718;9.000;2024-02-23T06:38:37;1.37;;;1.27;;
85807;SDS011;76250;48.718;9.000;2024-02-23T06:41:05;1.37;;;1.27;;
85807;SDS011;76250;48.718;9.000;2024-02-23T06:43:34;1.40;;;1.30;;
85807;SDS011;76250;48.718;9.000;2024-02-23T06:46:08;2.17;;;1.13;;
85807;SDS011;76250;48.718;9.000;2024-02-23T06:48:37;1.47;;;1.37;;
85807;SDS011;76250;48.718;9.000;2024-02-23T06:51:06;1.47;;;1.40;;
85807;SDS011;76250;48.718;9.000;2024-02-23T06:53:37;1.60;;;1.30;;
85807;SDS011;76250;48.718;9.000;2024-02-23T06:56:05;1.37;;;1.20;;
85807;SDS011;76250;48.718;9.000;2024-02-23T06:58:34;1.40;;;1.30;;
85807;SDS011;76250;48.718;9.000;2024-02-23T07:01:03;1.50;;;1.40;;
85807;SDS011;76250;48.718;9.000;2024-02-23T07:03:34;1.90;;;1.80;;
85807;SDS011;76250;48.718;9.000;2024-02-23T07:06:03;2.43;;;1.53;;
85807;SDS011;76250;48.718;9.000;2024-02-23T07:08:31;1.23;;;1.20;;
85807;SDS011;76250;48.718;9.000;2024-02-23T07:10:59;2.60;;;2.00;;
85807;SDS011;76250;48.718;9.000;2024-02-23T07:13:27;2.00;;;1.80;;
85807;SDS011;76250;48.718;9.000;2024-02-23T07:15:57;1.87;;;1.77;;
85807;SDS011;76250;48.718;9.000;2024-02-23T07:18:25;3.17;;;2.00;;
85807;SDS011;76250;48.718;9.000;2024-02-23T07:20:53;1.67;;;1.57;;
85807;SDS011;76250;48.718;9.000;2024-02-23T07:23:21;1.30;;;1.20;;
85807;SDS011;76250;48.718;9.000;2024-02-23T07:25:50;1.87;;;1.30;;
85807;SDS011;76250;48.718;9.000;2024-02-23T07:28:18;1.77;;;1.50;;
85807;SDS011;76250;48.718;9.000;2024-02-23T07:30:47;2.43;;;1.10;;
85807;SDS011;76250;48.718;9.000;2024-02-23T07:33:14;1.47;;;1.37;;
85807;SDS011;76250;48.718;9.000;2024-02-23T07:35:43;1.30;;;1.20;;
85807;SDS011;76250;48.718;9.000;2024-02-23T07:38:11;1.67;;;1.57;;
85807;SDS011;76250;48.718;9.000;2024-02-23T07:40:39;1.50;;;1.40;;
85807;SDS011;76250;48.718;9.000;2024-02-23T07:43:07;1.10;;;1.10;;
85807;SDS011;76250;48.718;9.000;2024-02-23T07:45:38;1.80;;;1.47;;
85807;SDS011;76250;48.718;9.000;2024-02-23T07:48:06;1.93;;;1.20;;
85807;SDS011;76250;48.718;9.000;2024-02-23T07:50:37;0.90;;;0.90;;
85807;SDS011;76250;48.718;9.000;2024-02-23T07:53:05;1.87;;;1.30;;
85807;SDS011;76250;48.718;9.000;2024-02-23T07:55:33;1.30;;;1.20;;
85807;SDS011;76250;48.718;9.000;2024-02-23T07:58:01;1.60;;;1.50;;
85807;SDS011;76250;48.718;9.000;2024-02-23T08:00:29;1.60;;;1.50;;
85807;SDS011;76250;48.718;9.000;2024-02-23T08:02:57;1.40;;;1.40;;
85807;SDS011;76250;48.718;9.000;2024-02-23T08:05:26;2.20;;;1.67;;
85807;SDS011;76250;48.718;9.000;2024-02-23T08:07:54;1.10;;;1.10;;
85807;SDS011;76250;48.718;9.000;2024-02-23T08:10:23;1.57;;;1.40;;
85807;SDS011;76250;48.718;9.000;2024-02-23T08:12:53;1.90;;;1.30;;
85807;SDS011;76250;48.718;9.000;2024-02-23T08:15:21;1.93;;;1.30;;
85807;SDS011;76250;48.718;9.000;2024-02-23T08:17:48;1.90;;;1.60;;
85807;SDS011;76250;48.718;9.000;2024-02-23T08:20:17;1.57;;;1.47;;
85807;SDS011;76250;48.718;9.000;2024-02-23T08:22:45;0.93;;;0.93;;
85807;SDS011;76250;48.718;9.000;2024-02-23T08:25:13;2.87;;;1.70;;
85807;SDS011;76250;48.718;9.000;2024-02-23T08:27:42;1.03;;;1.00;;
85807;SDS011;76250;48.718;9.000;2024-02-23T08:30:10;1.10;;;1.10;;
85807;SDS011;76250;48.718;9.000;2024-02-23T08:32:41;1.80;;;1.30;;
85807;SDS011;76250;48.718;9.000;2024-02-23T08:35:09;1.40;;;1.30;;
85807;SDS011;76250;48.718;9.000;2024-02-23T08:37:37;1.53;;;1.43;;
85807;SDS011;76250;48.718;9.000;2024-02-23T08:40:06;2.70;;;1.53;;
85807;SDS011;76250;48.718;9.000;2024-02-23T08:42:35;1.47;;;1.37;;
85807;SDS011;76250;48.718;9.000;2024-02-23T08:45:04;3.10;;;1.77;;
85807;SDS011;76250;48.718;9.000;2024-02-23T08:47:32;1.40;;;1.30;;
85807;SDS011;76250;48.718;9.000;2024-02-23T08:50:03;3.13;;;1.47;;
85807;SDS011;76250;48.718;9.000;2024-02-23T08:52:32;1.50;;;1.40;;
85807;SDS011;76250;48.718;9.000;2024-02-23T08:55:00;1.40;;;1.30;;
85807;SDS011;76250;48.718;9.000;2024-02-23T08:57:28;1.60;;;1.47;;
85807;SDS011;76250;48.718;9.000;2024-02-23T08:59:56;2.00;;;1.40;;
85807;SDS011;76250;48.718;9.000;2024-02-23T09:02:25;1.70;;;1.57;;
85807;SDS011;76250;48.718;9.000;2024-02-23T09:04:53;1.30;;;1.20;;
85807;SDS011;76250;48.718;9.000;2024-02-23T09:07:21;2.60;;;1.27;;
85807;SDS011;76250;48.718;9.000;2024-02-23T09:09:50;2.17;;;1.40;;
85807;SDS011;76250;48.718;9.000;2024-02-23T09:12:18;1.40;;;1.30;;
85807;SDS011;76250;48.718;9.000;2024-02-23T09:14:46;1.77;;;1.30;;
85807;SDS011;76250;48.718;9.000;2024-02-23T09:17:15;1.57;;;1.40;;
85807;SDS011;76250;48.718;9.000;2024-02-23T09:19:43;2.23;;;1.33;;
85807;SDS011;76250;48.718;9.000;2024-02-23T09:22:11;1.37;;;1.33;;
85807;SDS011;76250;48.718;9.000;2024-02-23T09:24:39;1.50;;;1.30;;
85807;SDS011;76250;48.718;9.000;2024-02-23T09:27:07;1.23;;;1.13;;
85807;SDS011;76250;48.718;9.000;2024-02-23T09:29:35;2.53;;;1.50;;
85807;SDS011;76250;48.718;9.000;2024-02-23T09:32:04;2.57;;;1.60;;
85807;SDS011;76250;48.718;9.000;2024-02-23T09:34:33;1.73;;;1.37;;
85807;SDS011;76250;48.718;9.000;2024-02-23T09:37:01;2.43;;;1.43;;
85807;SDS011;76250;48.718;9.000;2024-02-23T09:39:29;1.63;;;1.50;;
85807;SDS011;76250;48.718;9.000;2024-02-23T09:41:57;2.00;;;1.50;;
85807;SDS011;76250;48.718;9.000;2024-02-23T09:44:33;1.63;;;1.30;;
85807;SDS011;76250;48.718;9.000;2024-02-23T09:47:02;1.30;;;1.20;;
85807;SDS011;76250;48.718;9.000;2024-02-23T09:49:37;3.37;;;1.40;;
85807;SDS011;76250;48.718;9.000;2024-02-23T09:52:10;1.40;;;1.10;;
85807;SDS011;76250;48.718;9.000;2024-02-23T09:54:38;2.03;;;1.50;;
85807;SDS011;76250;48.718;9.000;2024-02-23T09:57:07;2.63;;;1.10;;
85807;SDS011;76250;48.718;9.000;2024-02-23T09:59:37;1.67;;;1.20;;
85807;SDS011;76250;48.718;9.000;2024-02-23T10:02:09;4.07;;;1.50;;
85807;SDS011;76250;48.718;9.000;2024-02-23T10:04:42;1.50;;;1.23;;
85807;SDS011;76250;48.718;9.000;2024-02-23T10:07:15;1.30;;;1.23;;
85807;SDS011;76250;48.718;9.000;2024-02-23T10:09:44;1.37;;;1.27;;
85807;SDS011;76250;48.718;9.000;2024-02-23T10:12:12;1.13;;;1.13;;
85807;SDS011;76250;48.718;9.000;2024-02-23T10:14:41;1.93;;;1.40;;
85807;SDS011;76250;48.718;9.000;2024-02-23T10:17:10;1.67;;;1.30;;
85807;SDS011;76250;48.718;9.000;2024-02-23T10:19:38;3.63;;;1.40;;
85807;SDS011;76250;48.718;9.000;2024-02-23T10:22:06;1.33;;;1.23;;
85807;SDS011;76250;48.718;9.000;2024-02-23T10:24:34;1.83;;;1.20;;
85807;SDS011;76250;48.718;9.000;2024-02-23T10:27:04;2.67;;;1.40;;
85807;SDS011;76250;48.718;9.000;2024-02-23T10:29:32;2.03;;;1.40;;
85807;SDS011;76250;48.718;9.000;2024-02-23T10:32:00;1.20;;;1.10;;
85807;SDS011;76250;48.718;9.000;2024-02-23T10:34:30;2.27;;;1.40;;
85807;SDS011;76250;48.718;9.000;2024-02-23T10:37:00;1.30;;;1.20;;
85807;SDS011;76250;48.718;9.000;2024-02-23T10:39:29;1.57;;;1.23;;
85807;SDS011;76250;48.718;9.000;2024-02-23T10:42:00;2.70;;;1.43;;
85807;SDS011;76250;48.718;9.000;2024-02-23T10:44:32;1.93;;;1.60;;
85807;SDS011;76250;48.718;9.000;2024-02-23T10:47:00;1.97;;;1.40;;
85807;SDS011;76250;48.718;9.000;2024-02-23T10:49:30;1.17;;;1.13;;
85807;SDS011;76250;48.718;9.000;2024-02-23T10:51:58;2.10;;;1.20;;
85807;SDS011;76250;48.718;9.000;2024-02-23T10:54:27;1.33;;;1.20;;
85807;SDS011;76250;48.718;9.000;2024-02-23T10:56:56;2.03;;;1.50;;
85807;SDS011;76250;48.718;9.000;2024-02-23T10:59:24;1.30;;;1.20;;
85807;SDS011;76250;48.718;9.000;2024-02-23T11:01:54;1.60;;;1.50;;
85807;SDS011;76250;48.718;9.000;2024-02-23T11:04:26;1.67;;;1.27;;
85807;SDS011;76250;48.718;9.000;2024-02-23T11:06:56;1.40;;;1.30;;
85807;SDS011;76250;48.718;9.000;2024-02-23T11:09:26;2.87;;;1.90;;
85807;SDS011;76250;48.718;9.000;2024-02-23T11:11:55;2.47;;;1.60;;
85807;SDS011;76250;48.718;9.000;2024-02-23T11:14:34;1.23;;;1.13;;
85807;SDS011;76250;48.718;9.000;2024-02-23T11:17:04;1.73;;;1.30;;
85807;SDS011;76250;48.718;9.000;2024-02-23T11:19:41;2.07;;;1.33;;
85807;SDS011;76250;48.718;9.000;2024-02-23T11:22:24;2.70;;;1.60;;
85807;SDS011;76250;48.718;9.000;2024-02-23T11:25:05;3.33;;;1.60;;
85807;SDS011;76250;48.718;9.000;2024-02-23T11:27:38;1.50;;;1.40;;
85807;SDS011;76250;48.718;9.000;2024-02-23T11:30:11;2.70;;;1.50;;
85807;SDS011;76250;48.718;9.000;2024-02-23T11:32:43;2.27;;;1.33;;
85807;SDS011;76250;48.718;9.000;2024-02-23T11:35:16;1.87;;;1.60;;
85807;SDS011;76250;48.718;9.000;2024-02-23T11:37:48;1.50;;;1.27;;
85807;SDS011;76250;48.718;9.000;2024-02-23T11:40:28;2.37;;;1.57;;
85807;SDS011;76250;48.718;9.000;2024-02-23T11:42:59;2.27;;;1.50;;
85807;SDS011;76250;48.718;9.000;2024-02-23T11:45:28;1.53;;;1.30;;
85807;SDS011;76250;48.718;9.000;2024-02-23T11:47:56;2.03;;;1.40;;
85807;SDS011;76250;48.718;9.000;2024-02-23T11:50:24;2.50;;;1.50;;
85807;SDS011;76250;48.718;9.000;2024-02-23T11:52:52;3.13;;;1.30;;
85807;SDS011;76250;48.718;9.000;2024-02-23T11:55:21;1.70;;;1.30;;
85807;SDS011;76250;48.718;9.000;2024-02-23T11:57:51;1.87;;;1.30;;
85807;SDS011;76250;48.718;9.000;2024-02-23T12:00:32;2.30;;;1.70;;
85807;SDS011;76250;48.718;9.000;2024-02-23T12:03:00;1.77;;;1.40;;
85807;SDS011;76250;48.718;9.000;2024-02-23T12:05:28;3.17;;;1.60;;
85807;SDS011;76250;48.718;9.000;2024-02-23T12:07:56;1.47;;;1.37;;
85807;SDS011;76250;48.718;9.000;2024-02-23T12:10:26;2.10;;;1.40;;
85807;SDS011;76250;48.718;9.000;2024-02-23T12:12:54;2.63;;;1.63;;
85807;SDS011;76250;48.718;9.000;2024-02-23T12:15:23;1.90;;;1.70;;
85807;SDS011;76250;48.718;9.000;2024-02-23T12:17:52;2.00;;;1.50;;
85807;SDS011;76250;48.718;9.000;2024-02-23T12:20:20;3.73;;;1.70;;
85807;SDS011;76250;48.718;9.000;2024-02-23T12:22:49;2.43;;;1.50;;
85807;SDS011;76250;48.718;9.000;2024-02-23T12:25:17;3.17;;;1.40;;
85807;SDS011;76250;48.718;9.000;2024-02-23T12:27:45;4.40;;;1.70;;
85807;SDS011;76250;48.718;9.000;2024-02-23T12:30:13;2.10;;;1.57;;
85807;SDS011;76250;48.718;9.000;2024-02-23T12:32:43;2.07;;;1.23;;
85807;SDS011;76250;48.718;9.000;2024-02-23T12:35:11;1.87;;;1.50;;
85807;SDS011;76250;48.718;9.000;2024-02-23T12:37:42;1.97;;;1.57;;
85807;SDS011;76250;48.718;9.000;2024-02-23T12:40:13;1.83;;;1.43;;
85807;SDS011;76250;48.718;9.000;2024-02-23T12:42:41;2.80;;;1.43;;
85807;SDS011;76250;48.718;9.000;2024-02-23T12:45:09;2.30;;;1.70;;
85807;SDS011;76250;48.718;9.000;2024-02-23T12:47:37;2.57;;;1.40;;
85807;SDS011;76250;48.718;9.000;2024-02-23T12:50:06;3.07;;;1.47;;
85807;SDS011;76250;48.718;9.000;2024-02-23T12:52:35;2.20;;;1.60;;
85807;SDS011;76250;48.718;9.000;2024-02-23T12:55:03;1.87;;;1.40;;
85807;SDS011;76250;48.718;9.000;2024-02-23T12:57:32;4.93;;;1.50;;
85807;SDS011;76250;48.718;9.000;2024-02-23T13:00:00;2.37;;;1.30;;
85807;SDS011;76250;48.718;9.000;2024-02-23T13:02:28;3.23;;;1.50;;
85807;SDS011;76250;48.718;9.000;2024-02-23T13:04:56;1.80;;;1.30;;
85807;SDS011;76250;48.718;9.000;2024-02-23T13:07:25;3.20;;;1.63;;
85807;SDS011;76250;48.718;9.000;2024-02-23T13:09:56;2.67;;;1.60;;
85807;SDS011;76250;48.718;9.000;2024-02-23T13:12:24;2.60;;;1.30;;
85807;SDS011;76250;48.718;9.000;2024-02-23T13:14:52;1.57;;;1.27;;
85807;SDS011;76250;48.718;9.000;2024-02-23T13:17:20;1.53;;;1.20;;
85807;SDS011;76250;48.718;9.000;2024-02-23T13:19:51;2.40;;;1.37;;
85807;SDS011;76250;48.718;9.000;2024-02-23T13:22:37;2.10;;;1.37;;
85807;SDS011;76250;48.718;9.000;2024-02-23T13:25:05;2.33;;;1.70;;
85807;SDS011;76250;48.718;9.000;2024-02-23T13:27:33;1.43;;;1.30;;
85807;SDS011;76250;48.718;9.000;2024-02-23T13:30:02;1.70;;;1.23;;
85807;SDS011;76250;48.718;9.000;2024-02-23T13:32:31;3.30;;;1.47;;
85807;SDS011;76250;48.718;9.000;2024-02-23T13:35:00;2.50;;;1.50;;
85807;SDS011;76250;48.718;9.000;2024-02-23T13:37:31;1.57;;;1.30;;
85807;SDS011;76250;48.718;9.000;2024-02-23T13:40:00;1.87;;;1.70;;
85807;SDS011;76250;48.718;9.000;2024-02-23T13:42:30;3.17;;;1.77;;
85807;SDS011;76250;48.718;9.000;2024-02-23T13:44:58;3.03;;;1.60;;
85807;SDS011;76250;48.718;9.000;2024-02-23T13:47:27;2.80;;;1.40;;
85807;SDS011;76250;48.718;9.000;2024-02-23T13:49:55;1.97;;;1.50;;
85807;SDS011;76250;48.718;9.000;2024-02-23T13:52:24;2.17;;;1.40;;
85807;SDS011;76250;48.718;9.000;2024-02-23T13:54:54;1.63;;;1.37;;
85807;SDS011;76250;48.718;9.000;2024-02-23T13:57:23;1.77;;;1.43;;
85807;SDS011;76250;48.718;9.000;2024-02-23T13:59:51;2.53;;;1.37;;
85807;SDS011;76250;48.718;9.000;2024-02-23T14:02:27;2.10;;;1.50;;
85807;SDS011;76250;48.718;9.000;2024-02-23T14:05:00;2.67;;;1.50;;
85807;SDS011;76250;48.718;9.000;2024-02-23T14:07:30;1.47;;;1.27;;
85807;SDS011;76250;48.718;9.000;2024-02-23T14:09:58;2.00;;;1.33;;
85807;SDS011;76250;48.718;9.000;2024-02-23T14:12:26;2.90;;;1.80;;
85807;SDS011;76250;48.718;9.000;2024-02-23T14:14:55;2.73;;;1.50;;
85807;SDS011;76250;48.718;9.000;2024-02-23T14:17:23;1.43;;;1.30;;
85807;SDS011;76250;48.718;9.000;2024-02-23T14:19:52;1.77;;;1.30;;
85807;SDS011;76250;48.718;9.000;2024-02-23T14:22:20;2.07;;;1.30;;
85807;SDS011;76250;48.718;9.000;2024-02-23T14:24:48;3.00;;;1.63;;
85807;SDS011;76250;48.718;9.000;2024-02-23T14:27:15;2.03;;;1.60;;
85807;SDS011;76250;48.718;9.000;2024-02-23T14:29:43;1.40;;;1.30;;
85807;SDS011;76250;48.718;9.000;2024-02-23T14:32:15;2.63;;;1.60;;
85807;SDS011;76250;48.718;9.000;2024-02-23T14:34:45;2.17;;;1.50;;
85807;SDS011;76250;48.718;9.000;2024-02-23T14:37:13;4.57;;;1.60;;
85807;SDS011;76250;48.718;9.000;2024-02-23T14:39:41;1.83;;;1.40;;
85807;SDS011;76250;48.718;9.000;2024-02-23T14:42:13;1.17;;;1.10;;
85807;SDS011;76250;48.718;9.000;2024-02-23T14:44:41;2.37;;;1.30;;
85807;SDS011;76250;48.718;9.000;2024-02-23T14:47:09;2.20;;;1.50;;
85807;SDS011;76250;48.718;9.000;2024-02-23T14:49:37;3.03;;;1.97;;
85807;SDS011;76250;48.718;9.000;2024-02-23T14:52:05;2.13;;;1.57;;
85807;SDS011;76250;48.718;9.000;2024-02-23T14:54:34;1.30;;;1.20;;
85807;SDS011;76250;48.718;9.000;2024-02-23T14:57:03;1.53;;;1.43;;